createdAt,value
2022-11-30T00:01:20.458Z,15.40
2022-11-30T00:03:47.933Z,16.33
2022-11-30T00:06:22.727Z,15.53
2022-11-30T00:08:56.304Z,14.23
2022-11-30T00:11:24.597Z,16.80
2022-11-30T00:13:51.288Z,15.13
2022-11-30T00:16:18.333Z,16.20
2022-11-30T00:18:45.393Z,16.43
2022-11-30T00:21:14.648Z,14.40
2022-11-30T00:23:43.760Z,15.17
2022-11-30T00:26:13.190Z,16.07
2022-11-30T00:28:40.497Z,16.17
2022-11-30T00:31:10.360Z,15.70
2022-11-30T00:33:38.565Z,14.77
2022-11-30T00:36:12.600Z,15.37
2022-11-30T00:38:39.741Z,14.10
2022-11-30T00:41:06.905Z,14.30
2022-11-30T00:43:34.033Z,14.53
2022-11-30T00:46:01.378Z,14.83
2022-11-30T00:48:28.461Z,14.57
2022-11-30T00:50:55.506Z,14.70
2022-11-30T00:53:22.772Z,14.47
2022-11-30T00:55:49.804Z,15.73
2022-11-30T00:58:16.916Z,14.13
2022-11-30T01:00:44.000Z,15.20
2022-11-30T01:03:11.072Z,13.87
2022-11-30T01:05:38.269Z,14.40
2022-11-30T01:08:07.338Z,13.97
2022-11-30T01:10:35.339Z,15.57
2022-11-30T01:13:02.718Z,15.20
2022-11-30T01:15:30.267Z,14.23
2022-11-30T01:17:59.162Z,16.10
2022-11-30T01:20:26.164Z,15.63
2022-11-30T01:22:53.178Z,14.83
2022-11-30T01:25:20.178Z,13.50
2022-11-30T01:27:49.194Z,13.57
2022-11-30T01:30:16.505Z,13.50
2022-11-30T01:32:43.546Z,13.47
2022-11-30T01:35:10.960Z,13.03
2022-11-30T01:37:37.539Z,12.43
2022-11-30T01:40:04.688Z,11.73
2022-11-30T01:42:33.036Z,12.10
2022-11-30T01:45:02.225Z,12.00
2022-11-30T01:47:39.122Z,12.87
2022-11-30T01:50:19.425Z,11.87
2022-11-30T01:52:53.812Z,11.10
2022-11-30T01:55:25.307Z,11.90
2022-11-30T01:58:01.689Z,10.73
2022-11-30T02:00:28.813Z,12.50
2022-11-30T02:03:11.255Z,11.37
2022-11-30T02:05:40.544Z,11.07
2022-11-30T02:08:10.644Z,12.67
2022-11-30T02:10:41.759Z,12.40
2022-11-30T02:13:29.266Z,12.80
2022-11-30T02:16:16.896Z,12.60
2022-11-30T02:19:10.724Z,12.43
2022-11-30T02:21:51.348Z,12.83
2022-11-30T02:24:33.302Z,12.07
2022-11-30T02:27:08.860Z,12.33
2022-11-30T02:29:42.307Z,12.63
2022-11-30T02:32:15.369Z,12.77
2022-11-30T02:34:43.815Z,12.93
2022-11-30T02:37:13.621Z,11.93
2022-11-30T02:39:40.629Z,11.77
2022-11-30T02:42:12.971Z,13.87
2022-11-30T02:44:47.216Z,12.37
2022-11-30T02:47:45.056Z,13.23
2022-11-30T02:50:18.486Z,11.80
2022-11-30T02:52:45.663Z,13.23
2022-11-30T02:55:16.548Z,13.90
2022-11-30T02:57:43.295Z,13.00
2022-11-30T03:00:11.044Z,12.83
2022-11-30T03:02:38.716Z,12.57
2022-11-30T03:05:06.876Z,12.40
2022-11-30T03:07:33.815Z,13.20
2022-11-30T03:10:00.649Z,11.73
2022-11-30T03:12:27.857Z,11.50
2022-11-30T03:14:54.899Z,12.17
2022-11-30T03:17:21.451Z,11.27
2022-11-30T03:19:48.488Z,10.93
2022-11-30T03:22:15.462Z,10.33
2022-11-30T03:24:42.496Z,9.97
2022-11-30T03:27:09.473Z,10.13
2022-11-30T03:29:36.537Z,11.50
2022-11-30T03:32:03.663Z,9.57
2022-11-30T03:34:30.687Z,10.57
2022-11-30T03:36:57.747Z,11.37
2022-11-30T03:39:24.758Z,10.07
2022-11-30T03:41:51.933Z,10.27
2022-11-30T03:44:19.127Z,11.70
2022-11-30T03:46:46.210Z,10.27
2022-11-30T03:49:13.321Z,11.53
2022-11-30T03:51:40.340Z,11.30
2022-11-30T03:54:07.375Z,11.07
2022-11-30T03:56:34.389Z,11.77
2022-11-30T03:59:01.394Z,11.87
2022-11-30T04:01:28.454Z,10.77
2022-11-30T04:03:55.175Z,10.40
2022-11-30T04:06:22.288Z,11.33
2022-11-30T04:08:49.608Z,11.33
2022-11-30T04:11:16.861Z,11.33
2022-11-30T04:13:43.875Z,11.30
2022-11-30T04:16:11.050Z,13.63
2022-11-30T04:18:38.579Z,12.07
2022-11-30T04:21:07.203Z,10.63
2022-11-30T04:23:36.796Z,13.33
2022-11-30T04:26:05.531Z,12.60
2022-11-30T04:28:32.595Z,12.73
2022-11-30T04:31:00.838Z,13.20
2022-11-30T04:33:28.289Z,13.20
2022-11-30T04:35:57.407Z,11.67
2022-11-30T04:38:24.575Z,13.00
2022-11-30T04:40:51.700Z,12.93
2022-11-30T04:43:19.081Z,13.57
2022-11-30T04:45:47.545Z,12.13
2022-11-30T04:48:15.737Z,13.13
2022-11-30T04:50:42.630Z,14.80
2022-11-30T04:53:09.924Z,15.40
2022-11-30T04:55:37.988Z,15.93
2022-11-30T04:58:05.493Z,16.47
2022-11-30T05:00:32.491Z,16.37
2022-11-30T05:02:59.534Z,16.37
2022-11-30T05:05:26.854Z,15.97
2022-11-30T05:07:58.546Z,17.13
2022-11-30T05:10:26.874Z,16.63
2022-11-30T05:12:53.896Z,15.67
2022-11-30T05:15:20.644Z,17.40
2022-11-30T05:17:47.694Z,16.43
2022-11-30T05:20:14.882Z,16.07
2022-11-30T05:22:41.500Z,15.90
2022-11-30T05:25:09.200Z,16.93
2022-11-30T05:27:36.620Z,16.63
2022-11-30T05:30:04.812Z,16.83
2022-11-30T05:32:31.378Z,15.90
2022-11-30T05:34:58.810Z,16.90
2022-11-30T05:37:25.992Z,22.80
2022-11-30T05:39:53.002Z,17.93
2022-11-30T05:42:19.681Z,18.07
2022-11-30T05:44:47.742Z,15.10
2022-11-30T05:47:15.206Z,15.47
2022-11-30T05:49:42.313Z,16.80
2022-11-30T05:52:09.504Z,14.27
2022-11-30T05:54:36.601Z,16.70
2022-11-30T05:57:04.796Z,15.83
2022-11-30T05:59:32.072Z,17.20
2022-11-30T06:01:58.709Z,14.60
2022-11-30T06:04:25.915Z,14.93
2022-11-30T06:06:55.463Z,14.37
2022-11-30T06:09:22.528Z,14.97
2022-11-30T06:11:49.533Z,14.90
2022-11-30T06:14:16.515Z,14.63
2022-11-30T06:16:43.575Z,15.00
2022-11-30T06:19:10.826Z,14.30
2022-11-30T06:21:37.936Z,15.17
2022-11-30T06:24:05.023Z,17.93
2022-11-30T06:26:32.028Z,15.20
2022-11-30T06:28:58.608Z,14.20
2022-11-30T06:31:25.803Z,15.57
2022-11-30T06:33:52.864Z,17.43
2022-11-30T06:36:23.101Z,16.00
2022-11-30T06:38:50.290Z,15.47
2022-11-30T06:41:17.221Z,14.97
2022-11-30T06:43:44.085Z,14.10
2022-11-30T06:46:11.315Z,16.30
2022-11-30T06:48:38.780Z,14.60
2022-11-30T06:51:08.618Z,15.17
2022-11-30T06:53:36.188Z,14.03
2022-11-30T06:56:10.282Z,14.17
2022-11-30T06:58:41.070Z,15.57
2022-11-30T07:01:10.364Z,14.00
2022-11-30T07:03:37.513Z,12.87
2022-11-30T07:06:09.088Z,13.50
2022-11-30T07:08:36.260Z,13.60
2022-11-30T07:11:03.534Z,14.00
2022-11-30T07:13:30.535Z,13.83
2022-11-30T07:15:57.888Z,13.10
2022-11-30T07:18:31.464Z,12.57
2022-11-30T07:21:02.607Z,12.13
2022-11-30T07:23:54.031Z,10.80
2022-11-30T07:26:22.551Z,10.50
2022-11-30T07:28:54.598Z,12.23
2022-11-30T07:31:29.944Z,9.87
2022-11-30T07:33:58.507Z,11.07
2022-11-30T07:36:26.735Z,10.80
2022-11-30T07:38:53.770Z,10.83
2022-11-30T07:41:20.792Z,10.23
2022-11-30T07:43:47.808Z,10.73
2022-11-30T07:46:16.031Z,10.60
2022-11-30T07:48:44.025Z,10.87
2022-11-30T07:51:14.264Z,10.07
2022-11-30T07:53:41.259Z,10.30
2022-11-30T07:56:14.390Z,9.77
2022-11-30T07:58:42.160Z,10.03
2022-11-30T08:01:11.917Z,10.53
2022-11-30T08:03:38.981Z,8.57
2022-11-30T08:06:08.564Z,9.23
2022-11-30T08:08:37.778Z,9.83
2022-11-30T08:11:05.539Z,13.10
2022-11-30T08:13:33.048Z,10.03
2022-11-30T08:16:11.482Z,11.43
2022-11-30T08:18:39.398Z,10.00
2022-11-30T08:21:07.903Z,10.23
2022-11-30T08:23:46.441Z,10.07
2022-11-30T08:26:15.979Z,8.73
2022-11-30T08:28:44.056Z,10.17
2022-11-30T08:31:13.585Z,8.33
2022-11-30T08:33:40.941Z,8.10
2022-11-30T08:36:09.721Z,8.93
2022-11-30T08:38:37.229Z,8.03
2022-11-30T08:41:04.960Z,9.33
2022-11-30T08:43:32.117Z,9.27
2022-11-30T08:45:59.282Z,8.87
2022-11-30T08:48:25.946Z,10.53
2022-11-30T08:50:52.505Z,10.50
2022-11-30T08:53:19.522Z,8.07
2022-11-30T08:55:59.335Z,8.50
2022-11-30T08:58:27.100Z,20.13
2022-11-30T09:00:54.110Z,20.90
2022-11-30T09:03:21.011Z,21.33
2022-11-30T09:05:48.000Z,14.63
2022-11-30T09:08:14.673Z,11.47
2022-11-30T09:10:41.685Z,8.37
2022-11-30T09:13:08.245Z,9.20
2022-11-30T09:15:35.338Z,10.30
2022-11-30T09:18:02.400Z,12.07
2022-11-30T09:20:29.498Z,13.17
2022-11-30T09:22:56.480Z,10.27
2022-11-30T09:25:23.054Z,8.43
2022-11-30T09:27:50.119Z,8.20
2022-11-30T09:30:16.862Z,7.70
2022-11-30T09:32:43.856Z,8.07
2022-11-30T09:35:13.004Z,8.47
2022-11-30T09:37:40.233Z,8.43
2022-11-30T09:40:07.588Z,7.80
2022-11-30T09:42:34.643Z,7.17
2022-11-30T09:45:13.776Z,7.43
2022-11-30T09:47:58.536Z,6.83
2022-11-30T09:50:29.682Z,7.83
2022-11-30T09:53:05.002Z,7.17
2022-11-30T09:55:39.128Z,7.20
2022-11-30T09:58:07.231Z,7.10
2022-11-30T10:00:34.803Z,6.73
2022-11-30T10:03:05.726Z,7.37
2022-11-30T10:05:56.544Z,7.20
2022-11-30T10:08:23.186Z,7.10
2022-11-30T10:11:14.529Z,5.83
2022-11-30T10:14:24.646Z,6.00
2022-11-30T10:17:17.832Z,6.00
2022-11-30T10:20:16.765Z,6.67
2022-11-30T10:23:18.295Z,6.90
2022-11-30T10:26:09.299Z,6.23
2022-11-30T10:28:46.878Z,6.87
2022-11-30T10:31:15.575Z,6.23
2022-11-30T10:33:50.954Z,5.40
2022-11-30T10:36:34.606Z,6.70
2022-11-30T10:39:04.491Z,5.60
2022-11-30T10:41:45.623Z,6.47
2022-11-30T10:44:23.075Z,6.17
2022-11-30T10:47:01.030Z,5.73
2022-11-30T10:49:29.884Z,5.03
2022-11-30T10:52:02.768Z,5.47
2022-11-30T10:54:30.908Z,6.53
2022-11-30T10:57:01.772Z,5.50
2022-11-30T10:59:44.084Z,8.83
2022-11-30T11:02:35.537Z,5.00
2022-11-30T11:05:24.018Z,5.73
2022-11-30T11:08:06.960Z,4.50
2022-11-30T11:10:45.831Z,4.33
2022-11-30T11:13:35.389Z,4.67
2022-11-30T11:16:04.372Z,4.00
2022-11-30T11:18:36.444Z,5.57
2022-11-30T11:21:10.307Z,4.17
2022-11-30T11:23:40.452Z,4.30
2022-11-30T11:26:16.966Z,3.77
2022-11-30T11:28:46.700Z,4.27
2022-11-30T11:31:36.769Z,3.17
2022-11-30T11:34:05.065Z,3.33
2022-11-30T11:36:33.922Z,4.80
2022-11-30T11:39:01.140Z,3.10
2022-11-30T11:41:31.530Z,3.17
2022-11-30T11:44:10.140Z,5.13
2022-11-30T11:46:52.080Z,3.93
2022-11-30T11:49:23.636Z,3.20
2022-11-30T11:52:01.370Z,2.80
2022-11-30T11:54:49.696Z,2.80
2022-11-30T11:57:19.590Z,2.93
2022-11-30T11:59:46.872Z,5.50
2022-11-30T12:02:23.697Z,6.80
2022-11-30T12:05:02.943Z,3.30
2022-11-30T12:07:45.869Z,3.40
2022-11-30T12:10:51.690Z,3.30
2022-11-30T12:13:24.419Z,2.63
2022-11-30T12:16:04.346Z,3.23
2022-11-30T12:18:37.643Z,2.90
2022-11-30T12:21:20.789Z,2.43
2022-11-30T12:24:31.513Z,3.00
2022-11-30T12:26:58.542Z,3.60
2022-11-30T12:29:52.251Z,5.60
2022-11-30T12:32:46.491Z,4.47
2022-11-30T12:35:16.023Z,3.50
2022-11-30T12:38:14.705Z,3.00
2022-11-30T12:41:10.238Z,3.17
2022-11-30T12:43:47.459Z,3.20
2022-11-30T12:46:46.405Z,3.30
2022-11-30T12:49:35.042Z,3.00
2022-11-30T12:52:02.186Z,2.87
2022-11-30T12:54:38.191Z,3.60
2022-11-30T12:57:21.556Z,3.37
2022-11-30T12:59:57.707Z,5.67
2022-11-30T13:02:45.167Z,6.63
2022-11-30T13:05:24.410Z,6.10
2022-11-30T13:08:03.576Z,7.80
2022-11-30T13:10:41.921Z,7.30
2022-11-30T13:13:16.863Z,7.67
2022-11-30T13:15:44.874Z,8.33
2022-11-30T13:18:17.556Z,9.17
2022-11-30T13:20:55.756Z,8.43
2022-11-30T13:23:34.227Z,8.33
2022-11-30T13:26:09.377Z,7.63
2022-11-30T13:28:42.408Z,8.03
2022-11-30T13:31:09.423Z,7.93
2022-11-30T13:33:59.692Z,8.00
2022-11-30T13:36:44.568Z,8.67
2022-11-30T13:39:14.013Z,7.50
2022-11-30T13:42:06.015Z,7.73
2022-11-30T13:44:33.000Z,8.30
2022-11-30T13:47:01.752Z,10.33
2022-11-30T13:49:29.571Z,9.70
2022-11-30T13:52:21.698Z,10.67
2022-11-30T13:54:51.360Z,8.30
2022-11-30T13:57:24.430Z,10.07
2022-11-30T13:59:54.941Z,9.90
2022-11-30T14:02:54.039Z,10.27
2022-11-30T14:05:40.673Z,9.53
2022-11-30T14:08:09.920Z,9.73
2022-11-30T14:10:47.570Z,10.07
2022-11-30T14:13:16.113Z,10.13
2022-11-30T14:15:42.630Z,9.20
2022-11-30T14:18:09.647Z,8.77
2022-11-30T14:20:54.158Z,9.23
2022-11-30T14:23:31.913Z,9.27
2022-11-30T14:26:10.763Z,9.37
2022-11-30T14:28:57.285Z,10.00
2022-11-30T14:31:27.424Z,9.23
2022-11-30T14:34:05.399Z,8.73
2022-11-30T14:36:41.425Z,9.80
2022-11-30T14:39:34.276Z,9.37
2022-11-30T14:42:02.580Z,9.13
2022-11-30T14:44:39.822Z,11.07
2022-11-30T14:47:21.083Z,10.17
2022-11-30T14:49:52.120Z,8.87
2022-11-30T14:52:50.729Z,9.90
2022-11-30T14:55:38.292Z,10.63
2022-11-30T14:58:30.694Z,9.63
2022-11-30T15:00:57.781Z,10.00
2022-11-30T15:03:28.471Z,9.63
2022-11-30T15:06:00.316Z,9.03
2022-11-30T15:08:38.487Z,9.50
2022-11-30T15:11:11.258Z,9.43
2022-11-30T15:13:41.287Z,8.47
2022-11-30T15:16:28.795Z,10.27
2022-11-30T15:18:57.396Z,10.67
2022-11-30T15:21:24.587Z,9.73
2022-11-30T15:23:54.014Z,10.57
2022-11-30T15:26:27.662Z,9.93
2022-11-30T15:29:01.878Z,11.97
2022-11-30T15:31:39.148Z,12.73
2022-11-30T15:34:07.177Z,9.60
2022-11-30T15:36:38.295Z,9.77
2022-11-30T15:39:07.650Z,11.63
2022-11-30T15:41:35.930Z,9.97
2022-11-30T15:44:03.236Z,12.30
2022-11-30T15:46:33.184Z,11.43
2022-11-30T15:49:18.251Z,10.27
2022-11-30T15:51:47.027Z,10.40
2022-11-30T15:54:15.266Z,11.97
2022-11-30T15:56:54.440Z,10.03
2022-11-30T15:59:24.633Z,10.37
2022-11-30T16:02:08.626Z,10.27
2022-11-30T16:04:57.163Z,10.77
2022-11-30T16:07:52.005Z,10.00
2022-11-30T16:10:25.185Z,11.47
2022-11-30T16:12:54.189Z,9.97
2022-11-30T16:15:21.296Z,11.13
2022-11-30T16:17:47.925Z,11.07
2022-11-30T16:20:15.852Z,11.87
2022-11-30T16:22:46.921Z,10.53
2022-11-30T16:25:19.368Z,12.20
2022-11-30T16:27:47.522Z,12.60
2022-11-30T16:30:16.299Z,11.20
2022-11-30T16:32:43.542Z,11.93
2022-11-30T16:35:34.972Z,12.23
2022-11-30T16:38:02.003Z,10.63
2022-11-30T16:40:32.687Z,11.77
2022-11-30T16:43:01.901Z,11.97
2022-11-30T16:45:34.779Z,11.77
2022-11-30T16:48:01.468Z,12.57
2022-11-30T16:50:28.462Z,12.13
2022-11-30T16:52:55.471Z,13.30
2022-11-30T16:55:23.813Z,19.17
2022-11-30T16:57:50.662Z,13.90
2022-11-30T17:00:20.457Z,14.57
2022-11-30T17:03:22.781Z,12.60
2022-11-30T17:05:49.801Z,13.63
2022-11-30T17:08:16.784Z,13.33
2022-11-30T17:10:43.931Z,14.13
2022-11-30T17:13:14.880Z,10.80
2022-11-30T17:15:41.843Z,12.03
2022-11-30T17:18:08.860Z,12.37
2022-11-30T17:20:36.906Z,12.77
2022-11-30T17:23:04.861Z,11.67
2022-11-30T17:25:31.491Z,14.47
2022-11-30T17:28:00.025Z,13.97
2022-11-30T17:30:27.784Z,13.10
2022-11-30T17:32:54.943Z,11.90
2022-11-30T17:35:21.991Z,12.17
2022-11-30T17:37:48.993Z,11.93
2022-11-30T17:40:16.171Z,12.00
2022-11-30T17:42:43.204Z,11.50
2022-11-30T17:45:10.269Z,11.13
2022-11-30T17:47:37.473Z,10.97
2022-11-30T17:50:05.147Z,11.30
2022-11-30T17:52:31.724Z,11.53
2022-11-30T17:54:58.739Z,11.03
2022-11-30T17:57:25.318Z,10.70
2022-11-30T17:59:51.989Z,11.23
2022-11-30T18:02:18.693Z,11.67
2022-11-30T18:04:45.592Z,10.33
2022-11-30T18:07:12.438Z,11.17
2022-11-30T18:09:42.522Z,11.30
2022-11-30T18:12:10.595Z,11.13
2022-11-30T18:14:37.206Z,12.00
2022-11-30T18:17:03.956Z,11.27
2022-11-30T18:19:30.560Z,10.57
2022-11-30T18:21:57.566Z,10.40
2022-11-30T18:24:25.705Z,10.50
2022-11-30T18:26:53.060Z,9.90
2022-11-30T18:29:19.639Z,10.97
2022-11-30T18:31:48.296Z,10.43
2022-11-30T18:34:15.189Z,10.63
2022-11-30T18:36:42.325Z,10.77
2022-11-30T18:39:09.615Z,11.03
2022-11-30T18:41:36.747Z,10.97
2022-11-30T18:44:03.341Z,11.50
2022-11-30T18:46:30.510Z,10.77
2022-11-30T18:48:59.033Z,12.10
2022-11-30T18:51:28.029Z,10.80
2022-11-30T18:53:59.901Z,11.80
2022-11-30T18:56:29.875Z,11.20
2022-11-30T18:58:58.600Z,12.13
2022-11-30T19:01:26.264Z,13.93
2022-11-30T19:03:58.514Z,12.90
2022-11-30T19:06:29.408Z,12.07
2022-11-30T19:08:57.392Z,12.23
2022-11-30T19:11:24.381Z,13.63
2022-11-30T19:13:55.576Z,15.43
2022-11-30T19:16:22.969Z,13.17
2022-11-30T19:18:50.225Z,12.33
2022-11-30T19:21:19.154Z,12.67
2022-11-30T19:23:46.387Z,11.03
2022-11-30T19:26:14.212Z,12.03
2022-11-30T19:28:42.348Z,12.00
2022-11-30T19:31:17.952Z,12.10
2022-11-30T19:33:47.524Z,18.13
2022-11-30T19:36:22.306Z,15.53
2022-11-30T19:38:51.264Z,12.97
2022-11-30T19:41:19.977Z,12.27
2022-11-30T19:43:53.780Z,12.40
2022-11-30T19:46:23.016Z,12.93
2022-11-30T19:48:54.682Z,12.80
2022-11-30T19:51:21.711Z,12.37
2022-11-30T19:53:48.702Z,11.73
2022-11-30T19:56:17.207Z,12.43
2022-11-30T19:58:45.219Z,12.07
2022-11-30T20:01:23.795Z,12.50
2022-11-30T20:03:52.494Z,11.67
2022-11-30T20:06:19.668Z,11.63
2022-11-30T20:08:46.693Z,11.73
2022-11-30T20:11:15.322Z,12.03
2022-11-30T20:13:43.920Z,11.43
2022-11-30T20:16:16.992Z,11.67
2022-11-30T20:18:46.500Z,10.97
2022-11-30T20:21:18.793Z,13.37
2022-11-30T20:23:47.094Z,12.77
2022-11-30T20:26:23.761Z,13.07
2022-11-30T20:28:51.798Z,19.80
2022-11-30T20:31:20.461Z,14.67
2022-11-30T20:33:47.811Z,14.97
2022-11-30T20:36:15.658Z,14.23
2022-11-30T20:38:42.753Z,14.00
2022-11-30T20:41:18.975Z,14.43
2022-11-30T20:43:46.067Z,13.30
2022-11-30T20:46:24.355Z,16.23
2022-11-30T20:48:51.447Z,15.00
2022-11-30T20:51:30.830Z,15.30
2022-11-30T20:54:06.689Z,15.80
2022-11-30T20:56:36.483Z,14.77
2022-11-30T20:59:06.133Z,15.90
2022-11-30T21:01:33.235Z,15.80
2022-11-30T21:04:00.790Z,16.67
2022-11-30T21:06:29.697Z,15.67
2022-11-30T21:08:57.538Z,16.07
2022-11-30T21:11:24.786Z,15.60
2022-11-30T21:13:52.220Z,16.63
2022-11-30T21:16:27.341Z,15.97
2022-11-30T21:18:55.245Z,16.00
2022-11-30T21:21:24.588Z,15.10
2022-11-30T21:23:51.901Z,16.10
2022-11-30T21:26:20.517Z,16.60
2022-11-30T21:28:49.183Z,17.63
2022-11-30T21:31:16.788Z,17.07
2022-11-30T21:33:48.870Z,16.23
2022-11-30T21:36:19.391Z,16.00
2022-11-30T21:38:46.398Z,15.97
2022-11-30T21:41:14.440Z,16.87
2022-11-30T21:43:43.069Z,16.67
2022-11-30T21:46:18.214Z,17.07
2022-11-30T21:48:47.929Z,17.73
2022-11-30T21:51:16.913Z,17.60
2022-11-30T21:53:51.920Z,16.43
2022-11-30T21:56:28.154Z,15.93
2022-11-30T21:58:55.351Z,15.90
2022-11-30T22:01:26.430Z,14.93
2022-11-30T22:03:56.246Z,14.80
2022-11-30T22:06:24.583Z,14.27
2022-11-30T22:08:51.640Z,15.27
2022-11-30T22:11:20.541Z,15.30
2022-11-30T22:13:53.862Z,15.57
2022-11-30T22:16:21.858Z,15.40
2022-11-30T22:18:51.290Z,14.57
2022-11-30T22:21:20.903Z,14.40
2022-11-30T22:23:52.515Z,15.00
2022-11-30T22:26:25.552Z,13.57
2022-11-30T22:28:57.985Z,13.90
2022-11-30T22:31:30.470Z,13.93
2022-11-30T22:33:57.727Z,14.47
2022-11-30T22:36:27.240Z,14.23
2022-11-30T22:38:56.463Z,14.00
2022-11-30T22:41:23.983Z,13.23
2022-11-30T22:43:50.936Z,14.30
2022-11-30T22:46:28.144Z,14.27
2022-11-30T22:48:55.181Z,14.40
2022-11-30T22:51:26.940Z,13.10
2022-11-30T22:53:54.413Z,15.23
2022-11-30T22:56:23.588Z,12.73
2022-11-30T22:58:53.902Z,13.43
2022-11-30T23:01:24.189Z,12.90
2022-11-30T23:03:53.433Z,13.10
2022-11-30T23:06:20.935Z,13.33
2022-11-30T23:08:48.493Z,12.90
2022-11-30T23:11:18.493Z,13.30
2022-11-30T23:13:45.671Z,12.67
2022-11-30T23:16:14.235Z,11.67
2022-11-30T23:18:48.190Z,12.37
2022-11-30T23:21:20.896Z,12.47
2022-11-30T23:23:48.422Z,10.93
2022-11-30T23:26:21.956Z,11.67
2022-11-30T23:28:49.938Z,11.80
2022-11-30T23:31:32.668Z,10.67
2022-11-30T23:34:06.360Z,10.63
2022-11-30T23:36:34.077Z,11.00
2022-11-30T23:39:04.159Z,10.43
2022-11-30T23:41:31.038Z,9.87
2022-11-30T23:43:58.040Z,10.23
2022-11-30T23:46:25.480Z,9.87
2022-11-30T23:48:52.296Z,10.90
2022-11-30T23:51:18.900Z,10.87
2022-11-30T23:53:45.584Z,9.43
2022-11-30T23:56:15.073Z,9.47
2022-11-30T23:58:41.980Z,9.30
